Terminal Aerodrome Forecast
Issued by NWS

Home | Current Version | Previous Version | Text Only | Print | Product List | Glossary On
Versions: 1 2 3 4 5 6 7 8 9 10 11 12 13 14 15 16 17 18
487
FTUS43 KGRR 211744
TAFLAN
TAF
KLAN 211744Z 2118/2218 26018G26KT 6SM -RA OVC040
     FM212300 31010KT P6SM -SHSN OVC035
     FM220200 33006KT P6SM SCT040=

USA.gov is the U.S. government's official web portal to all federal, state and local government web resources and services.